createdAt,value
2019-04-23T00:00:21.924Z,12.82
2019-04-23T00:02:26.043Z,12.82
2019-04-23T00:03:20.318Z,12.74
2019-04-23T00:04:16.856Z,12.65
2019-04-23T00:05:29.083Z,12.59
2019-04-23T00:07:35.672Z,12.45
2019-04-23T00:08:36.520Z,12.42
2019-04-23T00:10:25.216Z,12.28
2019-04-23T00:11:25.527Z,12.28
2019-04-23T00:12:30.140Z,12.16
2019-04-23T00:13:24.571Z,12.19
2019-04-23T00:15:17.474Z,12.05
2019-04-23T00:16:26.289Z,12.01
2019-04-23T00:17:22.651Z,11.88
2019-04-23T00:18:30.561Z,11.96
2019-04-23T00:19:24.671Z,11.86
2019-04-23T00:20:20.087Z,11.79
2019-04-23T00:21:20.486Z,11.73
2019-04-23T00:22:20.581Z,11.98
2019-04-23T00:23:18.917Z,12.04
2019-04-23T00:24:34.876Z,12.09
2019-04-23T00:26:33.309Z,11.98
2019-04-23T00:29:27.956Z,11.86
2019-04-23T00:30:29.569Z,11.83
2019-04-23T00:31:29.676Z,11.94
2019-04-23T00:32:28.801Z,11.85
2019-04-23T00:34:25.017Z,11.90
2019-04-23T00:35:19.151Z,11.82
2019-04-23T00:36:25.949Z,11.78
2019-04-23T00:37:27.969Z,11.70
2019-04-23T00:38:26.828Z,11.73
2019-04-23T00:39:23.431Z,11.61
2019-04-23T00:40:23.068Z,11.55
2019-04-23T00:41:24.749Z,11.58
2019-04-23T00:42:30.626Z,11.49
2019-04-23T00:43:21.753Z,11.51
2019-04-23T00:44:29.807Z,11.54
2019-04-23T00:45:24.545Z,11.49
2019-04-23T00:46:25.108Z,11.36
2019-04-23T00:47:25.724Z,11.36
2019-04-23T00:48:31.232Z,11.42
2019-04-23T00:49:29.035Z,11.39
2019-04-23T00:51:20.340Z,11.36
2019-04-23T00:52:20.470Z,11.29
2019-04-23T00:53:22.106Z,11.33
2019-04-23T00:55:35.878Z,11.29
2019-04-23T00:57:25.824Z,11.28
2019-04-23T00:59:21.792Z,11.27
2019-04-23T01:00:28.409Z,11.28
2019-04-23T01:01:18.471Z,11.21
2019-04-23T01:02:26.363Z,11.21
2019-04-23T01:03:20.442Z,11.19
2019-04-23T01:04:20.468Z,11.10
2019-04-23T01:05:24.962Z,11.14
2019-04-23T01:06:21.053Z,11.07
2019-04-23T01:07:18.343Z,11.03
2019-04-23T01:08:27.902Z,10.97
2019-04-23T01:09:24.185Z,10.88
2019-04-23T01:10:20.621Z,10.74
2019-04-23T01:12:22.917Z,10.81
2019-04-23T01:13:22.721Z,10.78
2019-04-23T01:14:20.251Z,10.55
2019-04-23T01:15:26.183Z,10.60
2019-04-23T01:16:14.916Z,10.63
2019-04-23T01:17:29.910Z,10.67
2019-04-23T01:18:35.853Z,10.56
2019-04-23T01:19:24.584Z,10.61
2019-04-23T01:20:21.067Z,10.59
2019-04-23T01:20:58.208Z,10.63
2019-04-23T01:21:58.194Z,10.45
2019-04-23T01:22:59.036Z,10.48
2019-04-23T01:24:03.678Z,10.45
2019-04-23T01:25:08.765Z,10.38
2019-04-23T01:26:18.134Z,10.42
2019-04-23T01:28:23.626Z,10.44
2019-04-23T01:29:19.963Z,10.41
2019-04-23T01:30:19.866Z,10.42
2019-04-23T01:31:20.193Z,10.34
2019-04-23T01:32:25.719Z,10.26
2019-04-23T01:33:29.658Z,10.18
2019-04-23T01:34:24.425Z,10.25
2019-04-23T01:35:36.412Z,10.18
2019-04-23T01:37:28.604Z,10.17
2019-04-23T01:38:29.320Z,10.12
2019-04-23T01:39:23.964Z,10.08
2019-04-23T01:40:27.404Z,10.07
2019-04-23T01:41:28.962Z,10.08
2019-04-23T01:42:28.928Z,9.99
2019-04-23T01:43:24.505Z,10.04
2019-04-23T01:44:31.273Z,9.93
2019-04-23T01:45:25.955Z,9.91
2019-04-23T01:46:25.395Z,9.90
2019-04-23T01:47:24.696Z,9.78
2019-04-23T01:48:18.216Z,9.83
2019-04-23T01:49:30.910Z,9.76
2019-04-23T01:51:26.160Z,9.71
2019-04-23T01:52:29.476Z,9.76
2019-04-23T01:53:27.218Z,9.75
2019-04-23T01:54:26.137Z,9.81
2019-04-23T01:56:25.905Z,9.64
2019-04-23T01:57:23.146Z,9.60
2019-04-23T01:58:33.094Z,9.58
2019-04-23T01:59:24.702Z,9.58
2019-04-23T02:01:25.791Z,9.57
2019-04-23T02:02:29.838Z,9.50
2019-04-23T02:03:20.871Z,9.51
2019-04-23T02:04:22.975Z,9.46
2019-04-23T02:06:20.129Z,9.33
2019-04-23T02:07:31.068Z,9.29
2019-04-23T02:08:21.001Z,9.35
2019-04-23T02:09:25.032Z,9.48
2019-04-23T02:10:29.520Z,9.38
2019-04-23T02:11:20.270Z,9.38
2019-04-23T02:12:29.980Z,9.35
2019-04-23T02:13:23.860Z,9.31
2019-04-23T02:14:19.706Z,9.21
2019-04-23T02:15:23.470Z,9.26
2019-04-23T02:16:25.876Z,9.21
2019-04-23T02:17:23.327Z,9.20
2019-04-23T02:18:20.546Z,9.18
2019-04-23T02:19:25.422Z,9.15
2019-04-23T02:20:29.312Z,9.20
2019-04-23T02:21:39.890Z,9.15
2019-04-23T02:22:25.351Z,9.13
2019-04-23T02:23:26.613Z,9.14
2019-04-23T02:24:18.311Z,9.11
2019-04-23T02:25:35.758Z,9.04
2019-04-23T02:26:26.134Z,8.99
2019-04-23T02:27:29.574Z,9.14
2019-04-23T02:28:42.347Z,9.24
2019-04-23T02:31:44.549Z,9.23
2019-04-23T02:32:29.050Z,9.28
2019-04-23T02:35:42.710Z,9.24
2019-04-23T02:36:22.673Z,9.29
2019-04-23T02:37:35.090Z,9.21
2019-04-23T02:38:31.854Z,9.31
2019-04-23T02:39:31.129Z,9.28
2019-04-23T02:40:38.028Z,9.26
2019-04-23T02:41:46.346Z,9.20
2019-04-23T02:42:40.792Z,9.23
2019-04-23T02:45:27.068Z,9.24
2019-04-23T02:46:40.930Z,9.21
2019-04-23T02:47:48.565Z,9.15
2019-04-23T02:48:40.602Z,9.14
2019-04-23T02:49:38.124Z,9.11
2019-04-23T02:50:34.497Z,8.98
2019-04-23T02:51:26.774Z,9.02
2019-04-23T02:54:40.240Z,9.04
2019-04-23T02:55:39.318Z,8.99
2019-04-23T02:56:37.497Z,9.04
2019-04-23T02:57:29.735Z,8.98
2019-04-23T02:58:35.203Z,8.89
2019-04-23T03:00:35.575Z,8.86
2019-04-23T03:02:34.802Z,8.87
2019-04-23T03:04:42.104Z,8.94
2019-04-23T03:05:26.409Z,8.91
2019-04-23T03:08:26.759Z,8.89
2019-04-23T03:09:37.000Z,9.08
2019-04-23T03:10:40.411Z,8.95
2019-04-23T03:11:34.345Z,9.05
2019-04-23T03:14:27.258Z,8.80
2019-04-23T03:16:37.975Z,8.76
2019-04-23T03:17:19.037Z,8.70
2019-04-23T03:19:23.895Z,8.65
2019-04-23T03:20:37.981Z,8.65
2019-04-23T03:22:32.591Z,8.63
2019-04-23T03:23:31.854Z,8.68
2019-04-23T03:24:38.857Z,8.59
2019-04-23T03:26:53.157Z,8.61
2019-04-23T03:27:31.508Z,8.61
2019-04-23T03:28:37.727Z,8.53
2019-04-23T03:29:37.892Z,8.62
2019-04-23T03:30:47.793Z,8.55
2019-04-23T03:37:03.934Z,8.52
2019-04-23T03:37:40.764Z,8.38
2019-04-23T03:39:32.541Z,8.45
2019-04-23T03:40:37.001Z,8.30
2019-04-23T03:41:39.245Z,8.34
2019-04-23T03:42:22.339Z,8.28
2019-04-23T03:43:37.461Z,8.33
2019-04-23T03:44:36.122Z,8.36
2019-04-23T03:45:46.518Z,8.28
2019-04-23T03:46:29.534Z,8.29
2019-04-23T03:49:22.181Z,8.36
2019-04-23T03:50:35.863Z,8.45
2019-04-23T03:51:30.923Z,8.40
2019-04-23T03:52:29.399Z,8.26
2019-04-23T03:53:32.932Z,8.28
2019-04-23T03:54:34.231Z,8.33
2019-04-23T03:56:34.486Z,8.12
2019-04-23T03:57:24.604Z,8.12
2019-04-23T03:58:34.245Z,8.25
2019-04-23T03:59:40.416Z,8.20
2019-04-23T04:01:30.144Z,8.33
2019-04-23T04:02:40.423Z,8.16
2019-04-23T04:05:32.882Z,8.23
2019-04-23T04:08:36.547Z,8.23
2019-04-23T04:09:36.939Z,8.30
2019-04-23T04:10:28.991Z,8.28
2019-04-23T04:11:21.725Z,8.30
2019-04-23T04:12:37.079Z,8.29
2019-04-23T04:14:36.784Z,8.23
2019-04-23T04:16:38.304Z,8.33
2019-04-23T04:17:20.267Z,8.37
2019-04-23T04:18:38.639Z,8.41
2019-04-23T04:20:44.303Z,8.41
2019-04-23T04:22:29.361Z,8.36
2019-04-23T04:24:27.679Z,8.34
2019-04-23T04:26:32.681Z,8.34
2019-04-23T04:27:29.138Z,8.23
2019-04-23T04:28:35.911Z,8.26
2019-04-23T04:29:27.498Z,8.28
2019-04-23T04:30:27.743Z,8.37
2019-04-23T04:31:21.211Z,8.41
2019-04-23T04:32:17.539Z,8.45
2019-04-23T04:33:41.346Z,8.65
2019-04-23T04:34:52.456Z,8.53
2019-04-23T04:38:16.424Z,8.65
2019-04-23T04:38:59.053Z,8.71
2019-04-23T04:40:29.010Z,8.65
2019-04-23T04:42:08.736Z,8.62
2019-04-23T04:44:17.123Z,8.66
2019-04-23T04:47:54.027Z,8.86
2019-04-23T04:51:11.083Z,8.99
2019-04-23T04:54:59.294Z,9.08
2019-04-23T04:56:06.862Z,9.14
2019-04-23T04:57:00.021Z,9.18
2019-04-23T04:59:05.671Z,9.23
2019-04-23T05:00:11.055Z,9.33
2019-04-23T05:02:11.816Z,9.39
2019-04-23T05:03:53.173Z,9.53
2019-04-23T05:05:48.572Z,9.58
2019-04-23T05:08:02.550Z,9.72
2019-04-23T05:09:00.738Z,9.89
2019-04-23T05:11:24.132Z,10.02
2019-04-23T05:13:11.793Z,10.20
2019-04-23T05:14:00.102Z,10.26
2019-04-23T05:15:58.542Z,11.35
2019-04-23T05:16:56.517Z,12.37
2019-04-23T05:18:19.627Z,13.19
2019-04-23T05:19:08.583Z,14.04
2019-04-23T05:19:59.992Z,14.68
2019-04-23T05:20:58.035Z,15.10
2019-04-23T05:22:02.859Z,15.74
2019-04-23T05:24:00.625Z,16.48
2019-04-23T05:24:51.264Z,16.60
2019-04-23T05:25:49.927Z,16.88
2019-04-23T05:26:55.466Z,17.08
2019-04-23T05:28:05.974Z,17.16
2019-04-23T05:29:00.105Z,17.44
2019-04-23T05:31:53.355Z,17.59
2019-04-23T05:32:56.096Z,17.86
2019-04-23T05:33:57.914Z,18.00
2019-04-23T05:34:57.615Z,18.23
2019-04-23T05:36:13.100Z,18.26
2019-04-23T05:36:54.260Z,18.26
2019-04-23T05:39:02.032Z,18.25
2019-04-23T05:39:54.623Z,18.47
2019-04-23T05:41:53.605Z,18.26
2019-04-23T05:42:52.085Z,18.30
2019-04-23T05:43:57.941Z,18.36
2019-04-23T05:44:54.252Z,18.67
2019-04-23T05:46:16.030Z,19.00
2019-04-23T05:46:54.005Z,19.16
2019-04-23T05:47:59.012Z,19.26
2019-04-23T05:48:52.581Z,19.54
2019-04-23T05:49:51.741Z,19.80
2019-04-23T05:51:01.871Z,20.17
2019-04-23T05:52:17.803Z,20.14
2019-04-23T05:52:54.425Z,20.42
2019-04-23T05:53:51.389Z,20.74
2019-04-23T05:54:56.258Z,21.06
2019-04-23T05:55:55.530Z,20.57
2019-04-23T05:56:51.685Z,20.14
2019-04-23T05:57:52.416Z,20.33
2019-04-23T05:58:58.015Z,20.91
2019-04-23T06:00:59.187Z,20.98
2019-04-23T06:01:58.114Z,21.12
2019-04-23T06:02:56.903Z,20.98
2019-04-23T06:03:58.243Z,20.92
2019-04-23T06:04:55.203Z,20.66
2019-04-23T06:05:58.203Z,21.25
2019-04-23T06:08:53.191Z,23.19
2019-04-23T06:09:56.697Z,22.80
2019-04-23T06:10:55.560Z,22.65
2019-04-23T06:11:58.701Z,23.02
2019-04-23T06:12:50.864Z,23.13
2019-04-23T06:14:00.229Z,23.02
2019-04-23T06:14:53.255Z,22.45
2019-04-23T06:15:54.005Z,22.18
2019-04-23T06:17:56.159Z,21.65
2019-04-23T06:18:57.592Z,21.12
2019-04-23T06:20:01.165Z,20.67
2019-04-23T06:20:56.163Z,20.73
2019-04-23T06:21:57.562Z,20.48
2019-04-23T06:23:52.055Z,21.42
2019-04-23T06:26:19.767Z,21.13
2019-04-23T06:26:51.638Z,21.12
2019-04-23T06:27:54.352Z,21.31
2019-04-23T06:28:48.764Z,21.16
2019-04-23T06:29:51.543Z,20.70
2019-04-23T06:30:54.362Z,20.55
2019-04-23T06:31:55.362Z,21.03
2019-04-23T06:32:51.545Z,21.06
2019-04-23T06:33:53.919Z,21.01
2019-04-23T06:35:50.454Z,20.33
2019-04-23T06:36:54.128Z,20.26
2019-04-23T06:39:48.057Z,21.07
2019-04-23T06:40:53.961Z,20.70
2019-04-23T06:42:54.471Z,20.66
2019-04-23T06:44:00.522Z,20.91
2019-04-23T06:44:52.041Z,21.22
2019-04-23T06:45:45.706Z,21.75
2019-04-23T06:47:54.101Z,21.94
2019-04-23T06:48:49.138Z,21.94
2019-04-23T06:49:54.498Z,21.58
2019-04-23T06:50:56.207Z,21.71
2019-04-23T06:52:07.057Z,21.24
2019-04-23T06:52:45.536Z,21.37
2019-04-23T06:53:51.310Z,21.21
2019-04-23T06:54:56.540Z,21.16
2019-04-23T06:55:49.231Z,20.94
2019-04-23T06:57:00.920Z,20.36
2019-04-23T06:57:51.646Z,20.35
2019-04-23T06:58:47.275Z,20.06
2019-04-23T06:59:48.657Z,20.13
2019-04-23T07:00:53.996Z,20.35
2019-04-23T07:02:09.995Z,20.29
2019-04-23T07:02:53.754Z,20.11
2019-04-23T07:03:50.603Z,20.33
2019-04-23T07:04:58.598Z,20.43
2019-04-23T07:05:57.376Z,20.62
2019-04-23T07:06:58.254Z,21.01
2019-04-23T07:07:54.812Z,20.87
2019-04-23T07:09:05.331Z,20.51
2019-04-23T07:09:45.552Z,20.98
2019-04-23T07:10:54.401Z,21.40
2019-04-23T07:12:47.193Z,21.92
2019-04-23T07:13:58.654Z,22.02
2019-04-23T07:14:55.421Z,22.39
2019-04-23T07:15:53.371Z,22.86
2019-04-23T07:16:46.892Z,22.94
2019-04-23T07:17:47.771Z,23.19
2019-04-23T07:18:47.113Z,22.95
2019-04-23T07:19:48.102Z,23.36
2019-04-23T07:20:53.223Z,23.40
2019-04-23T07:21:51.169Z,23.00
2019-04-23T07:22:53.759Z,23.25
2019-04-23T07:24:06.883Z,23.20
2019-04-23T07:24:47.273Z,23.39
2019-04-23T07:26:03.864Z,23.80
2019-04-23T07:26:41.869Z,23.87
2019-04-23T07:27:49.373Z,24.25
2019-04-23T07:29:58.209Z,24.68
2019-04-23T07:30:52.414Z,24.00
2019-04-23T07:32:54.233Z,24.08
2019-04-23T07:34:55.742Z,24.84
2019-04-23T07:35:53.370Z,25.14
2019-04-23T07:36:47.839Z,24.24
2019-04-23T07:37:57.245Z,24.45
2019-04-23T07:39:01.607Z,24.99
2019-04-23T07:39:57.044Z,24.49
2019-04-23T07:40:48.067Z,24.05
2019-04-23T07:42:03.430Z,23.36
2019-04-23T07:42:55.113Z,23.04
2019-04-23T07:43:55.805Z,22.79
2019-04-23T07:44:50.145Z,22.62
2019-04-23T07:45:55.270Z,23.00
2019-04-23T07:47:07.778Z,23.15
2019-04-23T07:47:51.936Z,23.73
2019-04-23T07:48:47.712Z,23.80
2019-04-23T07:50:00.673Z,23.28
2019-04-23T07:50:47.923Z,22.91
2019-04-23T07:52:01.193Z,22.68
2019-04-23T07:52:59.041Z,22.98
2019-04-23T07:53:53.524Z,22.36
2019-04-23T07:54:58.614Z,22.00
2019-04-23T07:56:58.908Z,22.24
2019-04-23T07:57:49.322Z,22.30
2019-04-23T07:58:44.574Z,22.73
2019-04-23T08:01:48.890Z,24.16
2019-04-23T08:02:44.129Z,24.53
2019-04-23T08:03:48.389Z,24.40
2019-04-23T08:05:43.714Z,24.24
2019-04-23T08:07:53.011Z,24.32
2019-04-23T08:08:52.614Z,24.09
2019-04-23T08:09:54.652Z,24.65
2019-04-23T08:11:00.500Z,24.77
2019-04-23T08:11:52.424Z,24.96
2019-04-23T08:12:46.819Z,24.62
2019-04-23T08:13:53.530Z,24.09
2019-04-23T08:14:53.535Z,24.12
2019-04-23T08:15:46.639Z,24.35
2019-04-23T08:16:42.495Z,24.00
2019-04-23T08:17:43.459Z,23.95
2019-04-23T08:18:55.702Z,23.63
2019-04-23T08:20:49.619Z,23.60
2019-04-23T08:21:43.896Z,23.47
2019-04-23T08:22:45.542Z,23.04
2019-04-23T08:23:52.204Z,22.97
2019-04-23T08:25:55.885Z,23.93
2019-04-23T08:27:41.819Z,24.91
2019-04-23T08:28:58.429Z,25.09
2019-04-23T08:29:41.450Z,25.33
2019-04-23T08:30:45.483Z,25.32
2019-04-23T08:31:50.360Z,25.75
2019-04-23T08:32:46.806Z,26.07
2019-04-23T08:33:54.914Z,25.51
2019-04-23T08:35:04.432Z,25.06
2019-04-23T08:35:54.316Z,24.40
2019-04-23T08:36:48.255Z,24.22
2019-04-23T08:38:56.922Z,24.67
2019-04-23T08:40:55.655Z,23.61
2019-04-23T08:42:09.396Z,23.83
2019-04-23T08:42:52.745Z,24.08
2019-04-23T08:44:56.923Z,24.45
2019-04-23T08:45:46.327Z,23.84
2019-04-23T08:46:56.892Z,23.13
2019-04-23T08:47:59.081Z,23.05
2019-04-23T08:48:49.693Z,22.88
2019-04-23T08:49:49.055Z,22.49
2019-04-23T08:50:54.558Z,22.33
2019-04-23T08:51:53.348Z,22.61
2019-04-23T08:53:00.163Z,23.07
2019-04-23T08:53:48.077Z,23.35
2019-04-23T08:55:49.244Z,23.55
2019-04-23T08:56:50.031Z,23.32
2019-04-23T08:57:45.212Z,23.43
2019-04-23T08:58:40.363Z,23.91
2019-04-23T09:01:57.491Z,23.04
2019-04-23T09:02:54.043Z,22.39
2019-04-23T09:03:39.670Z,22.47
2019-04-23T09:06:45.323Z,23.01
2019-04-23T09:07:55.236Z,22.98
2019-04-23T09:08:42.345Z,23.02
2019-04-23T09:09:51.009Z,22.57
2019-04-23T09:10:50.151Z,22.65
2019-04-23T09:13:53.207Z,22.70
2019-04-23T09:14:48.556Z,22.67
2019-04-23T09:16:52.608Z,22.47
2019-04-23T09:17:47.571Z,22.55
2019-04-23T09:18:45.978Z,22.39
2019-04-23T09:20:37.173Z,21.84
2019-04-23T09:21:53.961Z,21.91
2019-04-23T09:22:43.585Z,21.72
2019-04-23T09:23:48.226Z,21.62
2019-04-23T09:24:47.081Z,21.69
2019-04-23T09:26:56.183Z,21.53
2019-04-23T09:27:49.668Z,21.52
2019-04-23T09:28:51.843Z,21.54
2019-04-23T09:29:54.070Z,21.53
2019-04-23T09:30:49.290Z,21.44
2019-04-23T09:32:07.363Z,21.47
2019-04-23T09:32:44.978Z,21.17
2019-04-23T09:34:54.174Z,21.09
2019-04-23T09:35:48.064Z,21.34
2019-04-23T09:36:51.531Z,21.37
2019-04-23T09:37:48.808Z,21.47
2019-04-23T09:38:49.908Z,21.22
2019-04-23T09:39:52.829Z,21.46
2019-04-23T09:40:56.059Z,21.37
2019-04-23T09:41:37.878Z,21.40
2019-04-23T09:42:54.486Z,21.61
2019-04-23T09:43:50.170Z,21.99
2019-04-23T09:45:48.497Z,21.69
2019-04-23T09:46:51.114Z,21.46
2019-04-23T09:47:51.872Z,21.34
2019-04-23T09:48:54.206Z,21.14
2019-04-23T09:49:46.766Z,21.16
2019-04-23T09:50:50.854Z,21.14
2019-04-23T09:51:45.183Z,21.04
2019-04-23T09:53:01.885Z,21.28
2019-04-23T09:53:48.725Z,21.52
2019-04-23T09:54:49.606Z,21.75
2019-04-23T09:55:51.442Z,21.98
2019-04-23T09:57:52.316Z,22.05
2019-04-23T09:58:41.973Z,21.80
2019-04-23T09:59:52.938Z,21.69
2019-04-23T10:00:40.672Z,21.61
2019-04-23T10:01:39.377Z,21.74
2019-04-23T10:02:34.275Z,21.91
2019-04-23T10:03:34.023Z,21.94
2019-04-23T10:04:34.380Z,21.99
2019-04-23T10:05:38.916Z,21.79
2019-04-23T10:06:23.277Z,21.90
2019-04-23T10:07:29.936Z,22.07
2019-04-23T10:08:24.234Z,22.31
2019-04-23T10:09:18.816Z,22.65
2019-04-23T10:10:18.561Z,22.94
2019-04-23T10:11:19.565Z,23.13
2019-04-23T10:12:28.129Z,22.64
2019-04-23T10:13:17.982Z,22.40
2019-04-23T10:14:18.668Z,22.52
2019-04-23T10:15:24.233Z,22.47
2019-04-23T10:16:19.834Z,22.35
2019-04-23T10:17:18.110Z,22.35
2019-04-23T10:18:18.268Z,22.39
2019-04-23T10:19:18.894Z,22.65
2019-04-23T10:20:18.237Z,22.94
2019-04-23T10:21:17.583Z,23.05
2019-04-23T10:22:17.416Z,23.07
2019-04-23T10:23:17.134Z,23.20
2019-04-23T10:24:17.102Z,23.69
2019-04-23T10:25:17.253Z,23.75
2019-04-23T10:26:17.042Z,24.00
2019-04-23T10:27:17.130Z,24.09
2019-04-23T10:28:18.668Z,23.76
2019-04-23T10:29:18.158Z,23.79
2019-04-23T10:30:17.745Z,23.87
2019-04-23T10:31:16.901Z,23.68
2019-04-23T10:32:17.692Z,23.93
2019-04-23T10:33:16.812Z,24.09
2019-04-23T10:34:17.079Z,24.28
2019-04-23T10:35:25.648Z,24.12
2019-04-23T10:36:21.026Z,24.15
2019-04-23T10:37:29.956Z,23.46
2019-04-23T10:38:20.021Z,23.32
2019-04-23T10:39:22.071Z,23.38
2019-04-23T10:40:23.239Z,23.28
2019-04-23T10:41:18.124Z,23.55
2019-04-23T10:42:18.140Z,23.79
2019-04-23T10:43:17.132Z,24.28
2019-04-23T10:44:17.236Z,24.67
2019-04-23T10:45:29.078Z,24.83
2019-04-23T10:46:36.469Z,24.90
2019-04-23T10:47:48.622Z,24.81
2019-04-23T10:49:53.175Z,24.65
2019-04-23T10:50:46.474Z,24.22
2019-04-23T10:51:40.972Z,23.93
2019-04-23T10:52:55.363Z,23.91
2019-04-23T10:53:45.852Z,24.31
2019-04-23T10:54:41.330Z,24.25
2019-04-23T10:56:47.832Z,23.79
2019-04-23T10:57:36.377Z,23.85
2019-04-23T10:58:38.481Z,23.73
2019-04-23T11:00:44.886Z,24.13
2019-04-23T11:01:45.067Z,24.43
2019-04-23T11:02:59.302Z,24.85
2019-04-23T11:03:58.872Z,25.18
2019-04-23T11:05:50.254Z,25.64
2019-04-23T11:06:45.087Z,25.50
2019-04-23T11:07:55.442Z,25.14
2019-04-23T11:08:44.029Z,25.02
2019-04-23T11:10:44.264Z,24.68
2019-04-23T11:11:49.960Z,24.60
2019-04-23T11:13:49.030Z,24.52
2019-04-23T11:14:50.705Z,24.35
2019-04-23T11:15:58.681Z,24.65
2019-04-23T11:17:46.479Z,25.00
2019-04-23T11:19:50.902Z,25.10
2019-04-23T11:20:46.177Z,24.68
2019-04-23T11:21:43.683Z,24.77
2019-04-23T11:23:39.240Z,24.60
2019-04-23T11:23:50.133Z,24.50
2019-04-23T11:25:06.140Z,24.90
2019-04-23T11:26:48.046Z,25.46
2019-04-23T11:27:46.616Z,25.70
2019-04-23T11:28:38.462Z,24.68
2019-04-23T11:29:50.512Z,24.20
2019-04-23T11:33:46.092Z,25.03
2019-04-23T11:36:09.256Z,25.25
2019-04-23T11:38:56.198Z,24.99
2019-04-23T11:39:53.192Z,24.42
2019-04-23T11:40:38.481Z,24.77
2019-04-23T11:42:49.989Z,25.35
2019-04-23T11:43:43.590Z,25.51
2019-04-23T11:44:41.610Z,25.32
2019-04-23T11:54:43.484Z,24.08
2019-04-23T11:55:49.332Z,23.55
2019-04-23T11:57:56.841Z,23.84
2019-04-23T11:58:42.608Z,24.00
2019-04-23T12:00:58.649Z,23.91
2019-04-23T12:02:43.310Z,24.02
2019-04-23T12:03:58.610Z,24.15
2019-04-23T12:04:48.617Z,23.60
2019-04-23T12:05:48.191Z,23.68
2019-04-23T12:06:41.990Z,23.83
2019-04-23T12:08:43.182Z,23.79
2019-04-23T12:09:46.831Z,23.95
2019-04-23T12:10:54.429Z,24.28
2019-04-23T12:12:53.684Z,24.77
2019-04-23T12:13:58.056Z,24.62
2019-04-23T12:14:54.316Z,24.52
2019-04-23T12:16:54.747Z,24.12
2019-04-23T12:17:44.308Z,24.31
2019-04-23T12:20:49.249Z,23.97
2019-04-23T12:21:43.894Z,23.94
2019-04-23T12:22:48.973Z,24.03
2019-04-23T12:23:48.456Z,23.97
2019-04-23T12:25:02.511Z,23.50
2019-04-23T12:26:47.159Z,23.35
2019-04-23T12:27:33.170Z,23.55
2019-04-23T12:28:44.070Z,23.55
2019-04-23T12:31:47.727Z,23.94
2019-04-23T12:32:48.711Z,23.66
2019-04-23T12:33:43.892Z,23.69
2019-04-23T12:34:53.050Z,23.09
2019-04-23T12:35:35.512Z,23.09
2019-04-23T12:36:51.404Z,23.09
2019-04-23T12:38:38.850Z,23.09
2019-04-23T12:39:42.503Z,23.07
2019-04-23T12:40:40.481Z,23.01
2019-04-23T12:41:45.648Z,23.20
2019-04-23T12:42:55.530Z,23.39
2019-04-23T12:43:33.273Z,23.33
2019-04-23T12:44:52.113Z,23.16
2019-04-23T12:45:47.371Z,23.28
2019-04-23T12:48:46.844Z,23.12
2019-04-23T12:50:48.719Z,23.36
2019-04-23T12:51:56.029Z,23.66
2019-04-23T12:53:39.940Z,23.83
2019-04-23T12:55:40.273Z,23.85
2019-04-23T12:56:48.845Z,23.88
2019-04-23T12:57:43.694Z,23.87
2019-04-23T12:58:34.048Z,23.46
2019-04-23T12:59:44.429Z,23.47
2019-04-23T13:00:36.478Z,23.50
2019-04-23T13:01:44.304Z,23.39
2019-04-23T13:03:49.180Z,23.07
2019-04-23T13:04:42.124Z,23.22
2019-04-23T13:05:33.986Z,23.22
2019-04-23T13:06:40.774Z,23.43
2019-04-23T13:08:53.806Z,23.36
2019-04-23T13:09:45.792Z,23.39
2019-04-23T13:10:44.433Z,23.20
2019-04-23T13:11:41.795Z,23.17
2019-04-23T13:12:47.385Z,23.12
2019-04-23T13:14:49.646Z,23.48
2019-04-23T13:16:44.764Z,23.88
2019-04-23T13:18:46.781Z,24.05
2019-04-23T13:19:49.237Z,24.13
2019-04-23T13:22:58.080Z,24.20
2019-04-23T13:23:39.371Z,23.80
2019-04-23T13:24:32.842Z,23.84
2019-04-23T13:25:49.498Z,23.88
2019-04-23T13:26:35.351Z,23.69
2019-04-23T13:27:49.968Z,23.80
2019-04-23T13:28:43.037Z,23.94
2019-04-23T13:29:43.245Z,23.91
2019-04-23T13:31:36.431Z,23.61
2019-04-23T13:32:50.177Z,23.66
2019-04-23T13:34:48.439Z,23.60
2019-04-23T13:36:46.900Z,23.04
2019-04-23T13:37:43.777Z,23.09
2019-04-23T13:39:42.220Z,23.42
2019-04-23T13:40:50.531Z,23.43
2019-04-23T13:41:39.107Z,23.43
2019-04-23T13:44:42.383Z,23.35
2019-04-23T13:46:00.063Z,23.48
2019-04-23T13:46:35.980Z,23.35
2019-04-23T13:47:47.261Z,23.31
2019-04-23T13:48:29.991Z,23.42
2019-04-23T13:49:49.282Z,23.32
2019-04-23T13:50:49.924Z,23.20
2019-04-23T13:51:58.695Z,23.31
2019-04-23T13:53:49.729Z,23.27
2019-04-23T13:54:59.949Z,23.20
2019-04-23T13:55:37.900Z,23.16
2019-04-23T13:56:54.843Z,23.05
2019-04-23T14:01:01.319Z,23.12
2019-04-23T14:01:46.937Z,23.10
2019-04-23T14:02:45.993Z,22.98
2019-04-23T14:03:41.262Z,22.97
2019-04-23T14:04:44.748Z,23.02
2019-04-23T14:05:45.357Z,23.04
2019-04-23T14:06:43.468Z,23.01
2019-04-23T14:10:48.158Z,22.88
2019-04-23T14:11:30.862Z,22.97
2019-04-23T14:12:43.727Z,23.05
2019-04-23T14:14:56.323Z,23.00
2019-04-23T14:15:46.256Z,23.00
2019-04-23T14:16:42.260Z,23.05
2019-04-23T14:17:47.118Z,22.94
2019-04-23T14:18:51.617Z,23.00
2019-04-23T14:19:35.021Z,23.13
2019-04-23T14:21:51.715Z,23.32
2019-04-23T14:24:47.095Z,23.27
2019-04-23T14:25:40.165Z,23.12
2019-04-23T14:26:35.160Z,23.20
2019-04-23T14:27:52.340Z,23.35
2019-04-23T14:32:05.152Z,23.20
2019-04-23T14:32:38.464Z,23.10
2019-04-23T14:33:47.059Z,23.02
2019-04-23T14:34:43.923Z,23.01
2019-04-23T14:35:40.565Z,23.10
2019-04-23T14:36:52.746Z,23.09
2019-04-23T14:37:54.773Z,23.00
2019-04-23T14:38:40.133Z,23.15
2019-04-23T14:39:40.246Z,23.15
2019-04-23T14:41:32.029Z,23.15
2019-04-23T14:42:47.622Z,23.17
2019-04-23T14:43:56.128Z,23.04
2019-04-23T14:44:31.190Z,23.22
2019-04-23T14:47:39.037Z,23.13
2019-04-23T14:48:38.389Z,23.13
2019-04-23T14:49:56.116Z,23.19
2019-04-23T14:50:39.983Z,23.32
2019-04-23T14:52:50.200Z,23.51
2019-04-23T14:55:51.067Z,23.42
2019-04-23T14:56:34.770Z,23.28
2019-04-23T14:57:40.329Z,23.51
2019-04-23T14:59:31.598Z,23.53
2019-04-23T15:00:50.363Z,23.42
2019-04-23T15:03:44.535Z,23.84
2019-04-23T15:04:45.960Z,23.75
2019-04-23T15:07:37.937Z,23.79
2019-04-23T15:08:54.642Z,23.84
2019-04-23T15:09:53.536Z,23.65
2019-04-23T15:10:41.299Z,23.75
2019-04-23T15:12:36.596Z,23.83
2019-04-23T15:13:35.818Z,23.58
2019-04-23T15:14:47.948Z,23.66
2019-04-23T15:15:34.356Z,23.80
2019-04-23T15:16:39.395Z,23.84
2019-04-23T15:17:34.695Z,23.80
2019-04-23T15:18:45.184Z,23.94
2019-04-23T15:19:40.342Z,23.95
2019-04-23T15:20:41.705Z,23.97
2019-04-23T15:22:42.214Z,23.70
2019-04-23T15:23:51.478Z,23.61
2019-04-23T15:27:45.548Z,23.60
2019-04-23T15:28:13.150Z,23.79
2019-04-23T15:29:24.310Z,23.80
2019-04-23T15:31:41.097Z,23.91
2019-04-23T15:32:44.433Z,24.00
2019-04-23T15:33:44.851Z,23.85
2019-04-23T15:34:30.656Z,23.78
2019-04-23T15:36:04.180Z,23.83
2019-04-23T15:37:58.964Z,23.85
2019-04-23T15:38:43.335Z,23.73
2019-04-23T15:39:55.427Z,23.65
2019-04-23T15:40:34.762Z,23.63
2019-04-23T15:41:38.549Z,23.63
2019-04-23T15:43:38.585Z,23.79
2019-04-23T15:44:32.113Z,23.75
2019-04-23T15:45:38.147Z,23.79
2019-04-23T15:48:42.699Z,23.73
2019-04-23T15:49:35.296Z,23.68
2019-04-23T15:53:36.462Z,23.75
2019-04-23T15:54:43.603Z,23.73
2019-04-23T15:55:40.798Z,23.75
2019-04-23T15:57:58.325Z,23.75
2019-04-23T15:58:46.199Z,23.65
2019-04-23T15:59:40.878Z,23.70
2019-04-23T16:00:29.412Z,23.63
2019-04-23T16:01:39.702Z,23.87
2019-04-23T16:02:06.198Z,23.75
2019-04-23T16:03:06.982Z,23.73
2019-04-23T16:04:07.295Z,23.63
2019-04-23T16:05:08.431Z,23.75
2019-04-23T16:06:07.907Z,23.70
2019-04-23T16:07:07.546Z,23.66
2019-04-23T16:08:40.358Z,23.72
2019-04-23T16:09:21.865Z,23.76
2019-04-23T16:10:44.896Z,23.83
2019-04-23T16:11:41.413Z,23.72
2019-04-23T16:12:31.794Z,23.85
2019-04-23T16:13:53.977Z,23.83
2019-04-23T16:15:35.484Z,23.39
2019-04-23T16:16:39.011Z,23.42
2019-04-23T16:17:35.146Z,23.46
2019-04-23T16:18:35.122Z,23.51
2019-04-23T16:19:36.172Z,23.58
2019-04-23T16:20:40.437Z,23.65
2019-04-23T16:21:58.373Z,23.61
2019-04-23T16:22:35.579Z,23.50
2019-04-23T16:23:35.911Z,23.46
2019-04-23T16:24:26.402Z,23.42
2019-04-23T16:25:32.514Z,23.42
2019-04-23T16:26:39.226Z,23.38
2019-04-23T16:27:26.087Z,23.31
2019-04-23T16:28:50.229Z,23.36
2019-04-23T16:29:48.839Z,23.36
2019-04-23T16:30:49.076Z,23.16
2019-04-23T16:31:49.423Z,23.27
2019-04-23T16:32:39.680Z,23.22
2019-04-23T16:33:25.890Z,23.32
2019-04-23T16:34:28.674Z,23.20